sensor_id;sensor_type;location;lat;lon;timestamp;P1;P2;P0
73623;PMS5003;61921;53.226;-1.296;2023-08-30T00:01:32;6;6;
73623;PMS5003;61921;53.226;-1.296;2023-08-30T00:03:57;9;8;
73623;PMS5003;61921;53.226;-1.296;2023-08-30T00:06:22;10;7;
73623;PMS5003;61921;53.226;-1.296;2023-08-30T00:08:48;7;5;
73623;PMS5003;61921;53.226;-1.296;2023-08-30T00:11:13;8;8;
73623;PMS5003;61921;53.226;-1.296;2023-08-30T00:13:38;12;11;
73623;PMS5003;61921;53.226;-1.296;2023-08-30T00:16:03;11;9;
73623;PMS5003;61921;53.226;-1.296;2023-08-30T00:18:28;10;8;
73623;PMS5003;61921;53.226;-1.296;2023-08-30T00:20:54;8;7;
73623;PMS5003;61921;53.226;-1.296;2023-08-30T00:23:19;7;6;
73623;PMS5003;61921;53.226;-1.296;2023-08-30T00:25:45;7;7;
73623;PMS5003;61921;53.226;-1.296;2023-08-30T00:28:10;9;9;
73623;PMS5003;61921;53.226;-1.296;2023-08-30T00:30:35;13;10;
73623;PMS5003;61921;53.226;-1.296;2023-08-30T00:33:00;8;8;
73623;PMS5003;61921;53.226;-1.296;2023-08-30T00:35:25;10;8;
73623;PMS5003;61921;53.226;-1.296;2023-08-30T00:37:51;10;6;
73623;PMS5003;61921;53.226;-1.296;2023-08-30T00:40:16;8;7;
73623;PMS5003;61921;53.226;-1.296;2023-08-30T00:42:41;10;9;
73623;PMS5003;61921;53.226;-1.296;2023-08-30T00:45:06;7;7;
73623;PMS5003;61921;53.226;-1.296;2023-08-30T00:47:32;10;8;
73623;PMS5003;61921;53.226;-1.296;2023-08-30T00:49:58;7;6;
73623;PMS5003;61921;53.226;-1.296;2023-08-30T00:52:23;8;8;
73623;PMS5003;61921;53.226;-1.296;2023-08-30T00:54:48;7;6;
73623;PMS5003;61921;53.226;-1.296;2023-08-30T00:57:14;6;6;
73623;PMS5003;61921;53.226;-1.296;2023-08-30T00:59:39;9;9;
73623;PMS5003;61921;53.226;-1.296;2023-08-30T01:02:04;9;6;
73623;PMS5003;61921;53.226;-1.296;2023-08-30T01:04:29;9;8;
73623;PMS5003;61921;53.226;-1.296;2023-08-30T01:06:55;9;8;
73623;PMS5003;61921;53.226;-1.296;2023-08-30T01:09:20;8;6;
73623;PMS5003;61921;53.226;-1.296;2023-08-30T01:11:46;10;8;
73623;PMS5003;61921;53.226;-1.296;2023-08-30T01:14:12;5;5;
73623;PMS5003;61921;53.226;-1.296;2023-08-30T01:16:36;5;5;
73623;PMS5003;61921;53.226;-1.296;2023-08-30T01:19:03;6;5;
73623;PMS5003;61921;53.226;-1.296;2023-08-30T01:21:29;8;6;
73623;PMS5003;61921;53.226;-1.296;2023-08-30T01:23:53;6;5;
73623;PMS5003;61921;53.226;-1.296;2023-08-30T01:26:20;5;5;
73623;PMS5003;61921;53.226;-1.296;2023-08-30T01:28:43;8;7;
73623;PMS5003;61921;53.226;-1.296;2023-08-30T01:31:09;7;5;
73623;PMS5003;61921;53.226;-1.296;2023-08-30T01:33:34;5;3;
73623;PMS5003;61921;53.226;-1.296;2023-08-30T01:35:59;5;5;
73623;PMS5003;61921;53.226;-1.296;2023-08-30T01:38:24;4;4;
73623;PMS5003;61921;53.226;-1.296;2023-08-30T01:40:49;8;7;
73623;PMS5003;61921;53.226;-1.296;2023-08-30T01:43:14;5;5;
73623;PMS5003;61921;53.226;-1.296;2023-08-30T01:45:40;5;5;
73623;PMS5003;61921;53.226;-1.296;2023-08-30T01:48:06;4;4;
73623;PMS5003;61921;53.226;-1.296;2023-08-30T01:50:30;7;6;
73623;PMS5003;61921;53.226;-1.296;2023-08-30T01:52:56;7;5;
73623;PMS5003;61921;53.226;-1.296;2023-08-30T01:55:21;6;4;
73623;PMS5003;61921;53.226;-1.296;2023-08-30T01:57:46;4;4;
73623;PMS5003;61921;53.226;-1.296;2023-08-30T02:00:12;5;5;
73623;PMS5003;61921;53.226;-1.296;2023-08-30T02:02:37;6;6;
73623;PMS5003;61921;53.226;-1.296;2023-08-30T02:05:02;8;8;
73623;PMS5003;61921;53.226;-1.296;2023-08-30T02:07:28;10;9;
73623;PMS5003;61921;53.226;-1.296;2023-08-30T02:09:54;6;6;
73623;PMS5003;61921;53.226;-1.296;2023-08-30T02:12:18;6;6;
73623;PMS5003;61921;53.226;-1.296;2023-08-30T02:14:47;6;5;
73623;PMS5003;61921;53.226;-1.296;2023-08-30T02:17:15;10;6;
73623;PMS5003;61921;53.226;-1.296;2023-08-30T02:19:35;5;5;
73623;PMS5003;61921;53.226;-1.296;2023-08-30T02:22:00;6;5;
73623;PMS5003;61921;53.226;-1.296;2023-08-30T02:24:25;6;6;
73623;PMS5003;61921;53.226;-1.296;2023-08-30T02:26:50;6;6;
73623;PMS5003;61921;53.226;-1.296;2023-08-30T02:29:16;9;7;
73623;PMS5003;61921;53.226;-1.296;2023-08-30T02:31:42;8;6;
73623;PMS5003;61921;53.226;-1.296;2023-08-30T02:34:07;9;8;
73623;PMS5003;61921;53.226;-1.296;2023-08-30T02:36:33;8;7;
73623;PMS5003;61921;53.226;-1.296;2023-08-30T02:38:58;7;7;
73623;PMS5003;61921;53.226;-1.296;2023-08-30T02:41:23;10;9;
73623;PMS5003;61921;53.226;-1.296;2023-08-30T02:43:48;11;9;
73623;PMS5003;61921;53.226;-1.296;2023-08-30T02:46:13;8;8;
73623;PMS5003;61921;53.226;-1.296;2023-08-30T02:48:39;11;10;
73623;PMS5003;61921;53.226;-1.296;2023-08-30T02:51:04;8;8;
73623;PMS5003;61921;53.226;-1.296;2023-08-30T02:53:29;9;7;
73623;PMS5003;61921;53.226;-1.296;2023-08-30T02:55:55;8;8;
73623;PMS5003;61921;53.226;-1.296;2023-08-30T02:58:20;8;8;
73623;PMS5003;61921;53.226;-1.296;2023-08-30T03:00:45;7;7;
73623;PMS5003;61921;53.226;-1.296;2023-08-30T03:03:11;10;7;
73623;PMS5003;61921;53.226;-1.296;2023-08-30T03:05:37;5;5;
73623;PMS5003;61921;53.226;-1.296;2023-08-30T03:08:02;8;7;
73623;PMS5003;61921;53.226;-1.296;2023-08-30T03:10:27;7;7;
73623;PMS5003;61921;53.226;-1.296;2023-08-30T03:12:52;8;8;
73623;PMS5003;61921;53.226;-1.296;2023-08-30T03:15:18;6;6;
73623;PMS5003;61921;53.226;-1.296;2023-08-30T03:17:43;10;10;
73623;PMS5003;61921;53.226;-1.296;2023-08-30T03:20:08;6;6;
73623;PMS5003;61921;53.226;-1.296;2023-08-30T03:22:34;7;7;
73623;PMS5003;61921;53.226;-1.296;2023-08-30T03:24:59;6;5;
73623;PMS5003;61921;53.226;-1.296;2023-08-30T03:27:24;5;5;
73623;PMS5003;61921;53.226;-1.296;2023-08-30T03:29:50;6;6;
73623;PMS5003;61921;53.226;-1.296;2023-08-30T03:32:16;5;5;
73623;PMS5003;61921;53.226;-1.296;2023-08-30T03:34:41;8;7;
73623;PMS5003;61921;53.226;-1.296;2023-08-30T03:37:06;6;6;
73623;PMS5003;61921;53.226;-1.296;2023-08-30T03:39:31;7;6;
73623;PMS5003;61921;53.226;-1.296;2023-08-30T03:41:57;5;5;
73623;PMS5003;61921;53.226;-1.296;2023-08-30T03:44:22;6;6;
73623;PMS5003;61921;53.226;-1.296;2023-08-30T03:46:47;7;7;
73623;PMS5003;61921;53.226;-1.296;2023-08-30T03:49:13;8;6;
73623;PMS5003;61921;53.226;-1.296;2023-08-30T03:51:38;6;6;
73623;PMS5003;61921;53.226;-1.296;2023-08-30T03:54:03;5;5;
73623;PMS5003;61921;53.226;-1.296;2023-08-30T03:56:29;6;6;
73623;PMS5003;61921;53.226;-1.296;2023-08-30T03:58:54;8;6;
73623;PMS5003;61921;53.226;-1.296;2023-08-30T04:01:19;6;5;
73623;PMS5003;61921;53.226;-1.296;2023-08-30T04:03:44;9;6;
73623;PMS5003;61921;53.226;-1.296;2023-08-30T04:06:10;5;5;
73623;PMS5003;61921;53.226;-1.296;2023-08-30T04:08:36;6;6;
73623;PMS5003;61921;53.226;-1.296;2023-08-30T04:11:01;7;7;
73623;PMS5003;61921;53.226;-1.296;2023-08-30T04:13:26;9;9;
73623;PMS5003;61921;53.226;-1.296;2023-08-30T04:15:52;6;6;
73623;PMS5003;61921;53.226;-1.296;2023-08-30T04:18:17;5;5;
73623;PMS5003;61921;53.226;-1.296;2023-08-30T04:20:43;6;6;
73623;PMS5003;61921;53.226;-1.296;2023-08-30T04:23:08;9;7;
73623;PMS5003;61921;53.226;-1.296;2023-08-30T04:25:34;11;8;
73623;PMS5003;61921;53.226;-1.296;2023-08-30T04:27:58;7;7;
73623;PMS5003;61921;53.226;-1.296;2023-08-30T04:30:23;10;6;
73623;PMS5003;61921;53.226;-1.296;2023-08-30T04:32:49;5;5;
73623;PMS5003;61921;53.226;-1.296;2023-08-30T04:35:14;6;6;
73623;PMS5003;61921;53.226;-1.296;2023-08-30T04:37:40;8;6;
73623;PMS5003;61921;53.226;-1.296;2023-08-30T04:40:06;7;6;
73623;PMS5003;61921;53.226;-1.296;2023-08-30T04:42:30;9;9;
73623;PMS5003;61921;53.226;-1.296;2023-08-30T04:44:56;5;5;
73623;PMS5003;61921;53.226;-1.296;2023-08-30T04:47:21;8;6;
73623;PMS5003;61921;53.226;-1.296;2023-08-30T04:49:49;8;5;
73623;PMS5003;61921;53.226;-1.296;2023-08-30T04:52:11;8;8;
73623;PMS5003;61921;53.226;-1.296;2023-08-30T04:54:37;7;7;
73623;PMS5003;61921;53.226;-1.296;2023-08-30T04:57:02;5;5;
73623;PMS5003;61921;53.226;-1.296;2023-08-30T04:59:28;7;5;
73623;PMS5003;61921;53.226;-1.296;2023-08-30T05:01:53;5;5;
73623;PMS5003;61921;53.226;-1.296;2023-08-30T05:04:18;5;4;
73623;PMS5003;61921;53.226;-1.296;2023-08-30T05:06:44;4;4;
73623;PMS5003;61921;53.226;-1.296;2023-08-30T05:09:09;5;5;
73623;PMS5003;61921;53.226;-1.296;2023-08-30T05:11:35;3;3;
73623;PMS5003;61921;53.226;-1.296;2023-08-30T05:14:00;7;4;
73623;PMS5003;61921;53.226;-1.296;2023-08-30T05:16:25;7;6;
73623;PMS5003;61921;53.226;-1.296;2023-08-30T05:18:50;8;8;
73623;PMS5003;61921;53.226;-1.296;2023-08-30T05:21:16;8;7;
73623;PMS5003;61921;53.226;-1.296;2023-08-30T05:23:41;6;5;
73623;PMS5003;61921;53.226;-1.296;2023-08-30T05:26:07;6;5;
73623;PMS5003;61921;53.226;-1.296;2023-08-30T05:28:32;5;5;
73623;PMS5003;61921;53.226;-1.296;2023-08-30T05:30:58;4;3;
73623;PMS5003;61921;53.226;-1.296;2023-08-30T05:33:23;4;4;
73623;PMS5003;61921;53.226;-1.296;2023-08-30T05:35:48;5;5;
73623;PMS5003;61921;53.226;-1.296;2023-08-30T05:38:13;5;5;
73623;PMS5003;61921;53.226;-1.296;2023-08-30T05:40:39;7;5;
73623;PMS5003;61921;53.226;-1.296;2023-08-30T05:43:04;7;7;
73623;PMS5003;61921;53.226;-1.296;2023-08-30T05:45:29;7;6;
73623;PMS5003;61921;53.226;-1.296;2023-08-30T05:47:55;8;7;
73623;PMS5003;61921;53.226;-1.296;2023-08-30T05:50:20;7;7;
73623;PMS5003;61921;53.226;-1.296;2023-08-30T05:52:46;8;7;
73623;PMS5003;61921;53.226;-1.296;2023-08-30T05:55:11;7;7;
73623;PMS5003;61921;53.226;-1.296;2023-08-30T05:57:36;6;6;
73623;PMS5003;61921;53.226;-1.296;2023-08-30T06:00:02;6;6;
73623;PMS5003;61921;53.226;-1.296;2023-08-30T06:02:27;6;6;
73623;PMS5003;61921;53.226;-1.296;2023-08-30T06:04:52;8;6;
73623;PMS5003;61921;53.226;-1.296;2023-08-30T06:07:17;7;6;
73623;PMS5003;61921;53.226;-1.296;2023-08-30T06:09:43;4;4;
73623;PMS5003;61921;53.226;-1.296;2023-08-30T06:12:08;5;5;
73623;PMS5003;61921;53.226;-1.296;2023-08-30T06:14:33;6;4;
73623;PMS5003;61921;53.226;-1.296;2023-08-30T06:16:58;5;5;
73623;PMS5003;61921;53.226;-1.296;2023-08-30T06:19:24;4;3;
73623;PMS5003;61921;53.226;-1.296;2023-08-30T06:21:49;6;6;
73623;PMS5003;61921;53.226;-1.296;2023-08-30T06:24:14;4;4;
73623;PMS5003;61921;53.226;-1.296;2023-08-30T06:26:39;4;3;
73623;PMS5003;61921;53.226;-1.296;2023-08-30T06:29:05;5;5;
73623;PMS5003;61921;53.226;-1.296;2023-08-30T06:31:30;4;4;
73623;PMS5003;61921;53.226;-1.296;2023-08-30T06:33:55;5;5;
73623;PMS5003;61921;53.226;-1.296;2023-08-30T06:36:21;4;4;
73623;PMS5003;61921;53.226;-1.296;2023-08-30T06:38:46;9;5;
73623;PMS5003;61921;53.226;-1.296;2023-08-30T06:41:11;5;5;
73623;PMS5003;61921;53.226;-1.296;2023-08-30T06:43:36;5;5;
73623;PMS5003;61921;53.226;-1.296;2023-08-30T06:46:02;4;3;
73623;PMS5003;61921;53.226;-1.296;2023-08-30T06:48:27;2;2;
73623;PMS5003;61921;53.226;-1.296;2023-08-30T06:50:52;3;3;
73623;PMS5003;61921;53.226;-1.296;2023-08-30T06:53:18;3;2;
73623;PMS5003;61921;53.226;-1.296;2023-08-30T06:55:43;3;1;
73623;PMS5003;61921;53.226;-1.296;2023-08-30T06:58:08;4;2;
73623;PMS5003;61921;53.226;-1.296;2023-08-30T07:00:33;5;3;
73623;PMS5003;61921;53.226;-1.296;2023-08-30T07:02:59;3;3;
73623;PMS5003;61921;53.226;-1.296;2023-08-30T07:05:24;3;2;
73623;PMS5003;61921;53.226;-1.296;2023-08-30T07:07:49;3;2;
73623;PMS5003;61921;53.226;-1.296;2023-08-30T07:10:15;2;2;
73623;PMS5003;61921;53.226;-1.296;2023-08-30T07:12:40;2;2;
73623;PMS5003;61921;53.226;-1.296;2023-08-30T07:15:05;0;0;
73623;PMS5003;61921;53.226;-1.296;2023-08-30T07:17:30;1;1;
73623;PMS5003;61921;53.226;-1.296;2023-08-30T07:19:55;2;1;
73623;PMS5003;61921;53.226;-1.296;2023-08-30T07:22:21;1;1;
73623;PMS5003;61921;53.226;-1.296;2023-08-30T07:24:46;2;1;
73623;PMS5003;61921;53.226;-1.296;2023-08-30T07:27:11;2;2;
73623;PMS5003;61921;53.226;-1.296;2023-08-30T07:29:36;2;2;
73623;PMS5003;61921;53.226;-1.296;2023-08-30T07:32:02;1;1;
73623;PMS5003;61921;53.226;-1.296;2023-08-30T07:34:27;1;1;
73623;PMS5003;61921;53.226;-1.296;2023-08-30T07:36:53;1;1;
73623;PMS5003;61921;53.226;-1.296;2023-08-30T07:39:18;1;1;
73623;PMS5003;61921;53.226;-1.296;2023-08-30T07:41:43;3;2;
73623;PMS5003;61921;53.226;-1.296;2023-08-30T07:44:08;2;2;
73623;PMS5003;61921;53.226;-1.296;2023-08-30T07:46:33;0;0;
73623;PMS5003;61921;53.226;-1.296;2023-08-30T07:48:59;2;2;
73623;PMS5003;61921;53.226;-1.296;2023-08-30T07:51:24;2;2;
73623;PMS5003;61921;53.226;-1.296;2023-08-30T07:53:49;1;1;
73623;PMS5003;61921;53.226;-1.296;2023-08-30T07:56:14;1;1;
73623;PMS5003;61921;53.226;-1.296;2023-08-30T07:58:40;0;0;
73623;PMS5003;61921;53.226;-1.296;2023-08-30T08:01:05;1;1;
73623;PMS5003;61921;53.226;-1.296;2023-08-30T08:03:30;1;1;
73623;PMS5003;61921;53.226;-1.296;2023-08-30T08:05:55;1;1;
73623;PMS5003;61921;53.226;-1.296;2023-08-30T08:08:21;2;1;
73623;PMS5003;61921;53.226;-1.296;2023-08-30T08:10:46;2;2;
73623;PMS5003;61921;53.226;-1.296;2023-08-30T08:13:11;1;1;
73623;PMS5003;61921;53.226;-1.296;2023-08-30T08:15:36;3;3;
73623;PMS5003;61921;53.226;-1.296;2023-08-30T08:18:02;3;3;
73623;PMS5003;61921;53.226;-1.296;2023-08-30T08:20:28;1;1;
73623;PMS5003;61921;53.226;-1.296;2023-08-30T08:22:52;2;2;
73623;PMS5003;61921;53.226;-1.296;2023-08-30T08:25:17;0;0;
73623;PMS5003;61921;53.226;-1.296;2023-08-30T08:27:43;2;2;
73623;PMS5003;61921;53.226;-1.296;2023-08-30T08:30:08;1;0;
73623;PMS5003;61921;53.226;-1.296;2023-08-30T08:32:33;5;3;
73623;PMS5003;61921;53.226;-1.296;2023-08-30T08:34:59;0;0;
73623;PMS5003;61921;53.226;-1.296;2023-08-30T08:37:24;0;0;
73623;PMS5003;61921;53.226;-1.296;2023-08-30T08:39:49;0;0;
73623;PMS5003;61921;53.226;-1.296;2023-08-30T08:42:16;0;0;
73623;PMS5003;61921;53.226;-1.296;2023-08-30T08:44:39;1;0;
73623;PMS5003;61921;53.226;-1.296;2023-08-30T08:47:05;2;0;
73623;PMS5003;61921;53.226;-1.296;2023-08-30T08:49:30;0;0;
73623;PMS5003;61921;53.226;-1.296;2023-08-30T08:51:55;2;2;
73623;PMS5003;61921;53.226;-1.296;2023-08-30T08:54:20;2;2;
73623;PMS5003;61921;53.226;-1.296;2023-08-30T08:56:46;1;1;
73623;PMS5003;61921;53.226;-1.296;2023-08-30T08:59:11;1;1;
73623;PMS5003;61921;53.226;-1.296;2023-08-30T09:01:36;1;1;
73623;PMS5003;61921;53.226;-1.296;2023-08-30T09:04:04;2;2;
73623;PMS5003;61921;53.226;-1.296;2023-08-30T09:06:27;0;0;
73623;PMS5003;61921;53.226;-1.296;2023-08-30T09:08:52;2;2;
73623;PMS5003;61921;53.226;-1.296;2023-08-30T09:11:17;2;2;
73623;PMS5003;61921;53.226;-1.296;2023-08-30T09:13:42;2;1;
73623;PMS5003;61921;53.226;-1.296;2023-08-30T09:16:11;3;1;
73623;PMS5003;61921;53.226;-1.296;2023-08-30T09:18:33;2;2;
73623;PMS5003;61921;53.226;-1.296;2023-08-30T09:23:23;2;0;
73623;PMS5003;61921;53.226;-1.296;2023-08-30T09:25:54;0;0;
73623;PMS5003;61921;53.226;-1.296;2023-08-30T09:28:14;3;3;
73623;PMS5003;61921;53.226;-1.296;2023-08-30T09:30:39;5;3;
73623;PMS5003;61921;53.226;-1.296;2023-08-30T09:33:04;2;2;
73623;PMS5003;61921;53.226;-1.296;2023-08-30T09:35:31;4;2;
73623;PMS5003;61921;53.226;-1.296;2023-08-30T09:37:56;2;2;
73623;PMS5003;61921;53.226;-1.296;2023-08-30T09:40:21;3;3;
73623;PMS5003;61921;53.226;-1.296;2023-08-30T09:42:46;2;2;
73623;PMS5003;61921;53.226;-1.296;2023-08-30T09:45:17;2;2;
73623;PMS5003;61921;53.226;-1.296;2023-08-30T09:47:36;2;2;
73623;PMS5003;61921;53.226;-1.296;2023-08-30T09:50:02;3;3;
73623;PMS5003;61921;53.226;-1.296;2023-08-30T09:52:27;2;2;
73623;PMS5003;61921;53.226;-1.296;2023-08-30T09:54:52;3;3;
73623;PMS5003;61921;53.226;-1.296;2023-08-30T09:57:17;3;3;
73623;PMS5003;61921;53.226;-1.296;2023-08-30T09:59:43;4;4;
73623;PMS5003;61921;53.226;-1.296;2023-08-30T10:02:08;2;2;
73623;PMS5003;61921;53.226;-1.296;2023-08-30T10:04:33;3;2;
73623;PMS5003;61921;53.226;-1.296;2023-08-30T10:06:58;2;1;
73623;PMS5003;61921;53.226;-1.296;2023-08-30T10:09:24;1;1;
73623;PMS5003;61921;53.226;-1.296;2023-08-30T10:11:49;2;2;
73623;PMS5003;61921;53.226;-1.296;2023-08-30T10:14:14;1;1;
73623;PMS5003;61921;53.226;-1.296;2023-08-30T10:16:41;3;3;
73623;PMS5003;61921;53.226;-1.296;2023-08-30T10:19:07;3;3;
73623;PMS5003;61921;53.226;-1.296;2023-08-30T10:21:30;2;2;
73623;PMS5003;61921;53.226;-1.296;2023-08-30T10:23:55;3;3;
73623;PMS5003;61921;53.226;-1.296;2023-08-30T10:26:20;1;1;
73623;PMS5003;61921;53.226;-1.296;2023-08-30T10:28:46;2;2;
73623;PMS5003;61921;53.226;-1.296;2023-08-30T10:31:12;3;3;
73623;PMS5003;61921;53.226;-1.296;2023-08-30T10:36:04;3;3;
73623;PMS5003;61921;53.226;-1.296;2023-08-30T10:38:27;5;3;
73623;PMS5003;61921;53.226;-1.296;2023-08-30T10:40:52;3;3;
73623;PMS5003;61921;53.226;-1.296;2023-08-30T10:43:27;4;1;
73623;PMS5003;61921;53.226;-1.296;2023-08-30T10:45:42;2;1;
73623;PMS5003;61921;53.226;-1.296;2023-08-30T10:48:07;2;2;
73623;PMS5003;61921;53.226;-1.296;2023-08-30T10:50:33;2;2;
73623;PMS5003;61921;53.226;-1.296;2023-08-30T10:52:57;5;4;
73623;PMS5003;61921;53.226;-1.296;2023-08-30T10:55:23;2;2;
73623;PMS5003;61921;53.226;-1.296;2023-08-30T10:57:57;5;3;
73623;PMS5003;61921;53.226;-1.296;2023-08-30T11:00:18;5;3;
73623;PMS5003;61921;53.226;-1.296;2023-08-30T11:02:38;5;3;
73623;PMS5003;61921;53.226;-1.296;2023-08-30T11:05:05;4;3;
73623;PMS5003;61921;53.226;-1.296;2023-08-30T11:07:28;3;1;
73623;PMS5003;61921;53.226;-1.296;2023-08-30T11:09:53;3;3;
73623;PMS5003;61921;53.226;-1.296;2023-08-30T11:12:19;3;2;
73623;PMS5003;61921;53.226;-1.296;2023-08-30T11:14:44;3;3;
73623;PMS5003;61921;53.226;-1.296;2023-08-30T11:17:09;3;3;
73623;PMS5003;61921;53.226;-1.296;2023-08-30T11:19:34;0;0;
73623;PMS5003;61921;53.226;-1.296;2023-08-30T11:21:59;2;2;
73623;PMS5003;61921;53.226;-1.296;2023-08-30T11:24:24;3;1;
73623;PMS5003;61921;53.226;-1.296;2023-08-30T11:26:52;1;1;
73623;PMS5003;61921;53.226;-1.296;2023-08-30T11:29:15;1;1;
73623;PMS5003;61921;53.226;-1.296;2023-08-30T11:31:40;2;1;
73623;PMS5003;61921;53.226;-1.296;2023-08-30T11:34:05;1;1;
73623;PMS5003;61921;53.226;-1.296;2023-08-30T11:36:31;2;1;
73623;PMS5003;61921;53.226;-1.296;2023-08-30T11:38:56;2;1;
73623;PMS5003;61921;53.226;-1.296;2023-08-30T11:41:21;0;0;
73623;PMS5003;61921;53.226;-1.296;2023-08-30T11:43:46;3;1;
73623;PMS5003;61921;53.226;-1.296;2023-08-30T11:46:11;2;1;
73623;PMS5003;61921;53.226;-1.296;2023-08-30T11:48:36;1;1;
73623;PMS5003;61921;53.226;-1.296;2023-08-30T11:51:01;1;1;
73623;PMS5003;61921;53.226;-1.296;2023-08-30T11:53:27;1;1;
73623;PMS5003;61921;53.226;-1.296;2023-08-30T11:55:52;3;2;
73623;PMS5003;61921;53.226;-1.296;2023-08-30T11:58:17;3;3;
73623;PMS5003;61921;53.226;-1.296;2023-08-30T12:00:42;3;3;
73623;PMS5003;61921;53.226;-1.296;2023-08-30T12:03:07;1;0;
73623;PMS5003;61921;53.226;-1.296;2023-08-30T12:05:32;1;1;
73623;PMS5003;61921;53.226;-1.296;2023-08-30T12:07:57;1;1;
73623;PMS5003;61921;53.226;-1.296;2023-08-30T12:10:22;2;2;
73623;PMS5003;61921;53.226;-1.296;2023-08-30T12:12:48;0;0;
73623;PMS5003;61921;53.226;-1.296;2023-08-30T12:15:13;0;0;
73623;PMS5003;61921;53.226;-1.296;2023-08-30T12:17:38;0;0;
73623;PMS5003;61921;53.226;-1.296;2023-08-30T12:20:03;2;1;
73623;PMS5003;61921;53.226;-1.296;2023-08-30T12:24:53;1;1;
73623;PMS5003;61921;53.226;-1.296;2023-08-30T12:27:18;1;1;
73623;PMS5003;61921;53.226;-1.296;2023-08-30T12:29:44;1;1;
73623;PMS5003;61921;53.226;-1.296;2023-08-30T12:32:09;2;2;
73623;PMS5003;61921;53.226;-1.296;2023-08-30T12:34:34;1;1;
73623;PMS5003;61921;53.226;-1.296;2023-08-30T12:36:59;1;0;
73623;PMS5003;61921;53.226;-1.296;2023-08-30T12:39:25;1;1;
73623;PMS5003;61921;53.226;-1.296;2023-08-30T12:41:49;2;2;
73623;PMS5003;61921;53.226;-1.296;2023-08-30T12:44:15;1;1;
73623;PMS5003;61921;53.226;-1.296;2023-08-30T12:46:40;2;2;
73623;PMS5003;61921;53.226;-1.296;2023-08-30T12:49:05;4;2;
73623;PMS5003;61921;53.226;-1.296;2023-08-30T12:51:30;2;2;
73623;PMS5003;61921;53.226;-1.296;2023-08-30T12:53:55;1;1;
73623;PMS5003;61921;53.226;-1.296;2023-08-30T12:56:20;2;2;
73623;PMS5003;61921;53.226;-1.296;2023-08-30T12:58:45;2;2;
73623;PMS5003;61921;53.226;-1.296;2023-08-30T13:01:11;1;1;
73623;PMS5003;61921;53.226;-1.296;2023-08-30T13:03:36;2;2;
73623;PMS5003;61921;53.226;-1.296;2023-08-30T13:06:01;4;4;
73623;PMS5003;61921;53.226;-1.296;2023-08-30T13:08:26;1;0;
73623;PMS5003;61921;53.226;-1.296;2023-08-30T13:10:51;1;1;
73623;PMS5003;61921;53.226;-1.296;2023-08-30T13:13:16;4;2;
73623;PMS5003;61921;53.226;-1.296;2023-08-30T13:15:41;1;1;
73623;PMS5003;61921;53.226;-1.296;2023-08-30T13:18:07;2;2;
73623;PMS5003;61921;53.226;-1.296;2023-08-30T13:20:32;2;2;
73623;PMS5003;61921;53.226;-1.296;2023-08-30T13:22:57;3;2;
73623;PMS5003;61921;53.226;-1.296;2023-08-30T13:25:22;3;3;
73623;PMS5003;61921;53.226;-1.296;2023-08-30T13:27:47;1;1;
73623;PMS5003;61921;53.226;-1.296;2023-08-30T13:30:12;2;2;
73623;PMS5003;61921;53.226;-1.296;2023-08-30T13:32:38;2;2;
73623;PMS5003;61921;53.226;-1.296;2023-08-30T13:35:03;5;2;
73623;PMS5003;61921;53.226;-1.296;2023-08-30T13:37:28;1;1;
73623;PMS5003;61921;53.226;-1.296;2023-08-30T13:39:53;1;1;
73623;PMS5003;61921;53.226;-1.296;2023-08-30T13:42:18;1;1;
73623;PMS5003;61921;53.226;-1.296;2023-08-30T13:44:43;2;2;
73623;PMS5003;61921;53.226;-1.296;2023-08-30T13:47:09;2;1;
73623;PMS5003;61921;53.226;-1.296;2023-08-30T13:49:33;0;0;
73623;PMS5003;61921;53.226;-1.296;2023-08-30T13:51:58;1;1;
73623;PMS5003;61921;53.226;-1.296;2023-08-30T13:54:24;3;1;
73623;PMS5003;61921;53.226;-1.296;2023-08-30T13:56:49;2;2;
73623;PMS5003;61921;53.226;-1.296;2023-08-30T13:59:14;1;1;
73623;PMS5003;61921;53.226;-1.296;2023-08-30T14:01:39;1;1;
73623;PMS5003;61921;53.226;-1.296;2023-08-30T14:04:04;0;0;
73623;PMS5003;61921;53.226;-1.296;2023-08-30T14:06:29;2;1;
73623;PMS5003;61921;53.226;-1.296;2023-08-30T14:08:54;0;0;
73623;PMS5003;61921;53.226;-1.296;2023-08-30T14:11:19;2;1;
73623;PMS5003;61921;53.226;-1.296;2023-08-30T14:13:45;0;0;
73623;PMS5003;61921;53.226;-1.296;2023-08-30T14:16:10;0;0;
73623;PMS5003;61921;53.226;-1.296;2023-08-30T14:18:35;1;1;
73623;PMS5003;61921;53.226;-1.296;2023-08-30T14:21:00;1;1;
73623;PMS5003;61921;53.226;-1.296;2023-08-30T14:23:26;2;1;
73623;PMS5003;61921;53.226;-1.296;2023-08-30T14:25:55;2;0;
73623;PMS5003;61921;53.226;-1.296;2023-08-30T14:28:15;1;1;
73623;PMS5003;61921;53.226;-1.296;2023-08-30T14:30:41;1;0;
73623;PMS5003;61921;53.226;-1.296;2023-08-30T14:33:06;2;2;
73623;PMS5003;61921;53.226;-1.296;2023-08-30T14:35:31;2;2;
73623;PMS5003;61921;53.226;-1.296;2023-08-30T14:37:56;2;1;
73623;PMS5003;61921;53.226;-1.296;2023-08-30T14:40:21;1;1;
73623;PMS5003;61921;53.226;-1.296;2023-08-30T14:42:46;2;2;
73623;PMS5003;61921;53.226;-1.296;2023-08-30T14:45:12;1;1;
73623;PMS5003;61921;53.226;-1.296;2023-08-30T14:47:37;0;0;
73623;PMS5003;61921;53.226;-1.296;2023-08-30T14:50:02;2;1;
73623;PMS5003;61921;53.226;-1.296;2023-08-30T14:52:27;0;0;
73623;PMS5003;61921;53.226;-1.296;2023-08-30T14:54:52;2;1;
73623;PMS5003;61921;53.226;-1.296;2023-08-30T14:57:17;0;0;
73623;PMS5003;61921;53.226;-1.296;2023-08-30T14:59:42;4;1;
73623;PMS5003;61921;53.226;-1.296;2023-08-30T15:02:07;0;0;
73623;PMS5003;61921;53.226;-1.296;2023-08-30T15:04:33;0;0;
73623;PMS5003;61921;53.226;-1.296;2023-08-30T15:06:58;3;2;
73623;PMS5003;61921;53.226;-1.296;2023-08-30T15:09:24;2;2;
73623;PMS5003;61921;53.226;-1.296;2023-08-30T15:11:48;0;0;
73623;PMS5003;61921;53.226;-1.296;2023-08-30T15:14:13;1;1;
73623;PMS5003;61921;53.226;-1.296;2023-08-30T15:16:38;1;1;
73623;PMS5003;61921;53.226;-1.296;2023-08-30T15:19:03;0;0;
73623;PMS5003;61921;53.226;-1.296;2023-08-30T15:21:28;2;2;
73623;PMS5003;61921;53.226;-1.296;2023-08-30T15:23:54;3;1;
73623;PMS5003;61921;53.226;-1.296;2023-08-30T15:26:18;2;0;
73623;PMS5003;61921;53.226;-1.296;2023-08-30T15:28:44;1;1;
73623;PMS5003;61921;53.226;-1.296;2023-08-30T15:31:08;0;0;
73623;PMS5003;61921;53.226;-1.296;2023-08-30T15:33:34;3;1;
73623;PMS5003;61921;53.226;-1.296;2023-08-30T15:35:59;2;0;
73623;PMS5003;61921;53.226;-1.296;2023-08-30T15:38:24;1;1;
73623;PMS5003;61921;53.226;-1.296;2023-08-30T15:40:50;2;1;
73623;PMS5003;61921;53.226;-1.296;2023-08-30T15:43:14;1;1;
73623;PMS5003;61921;53.226;-1.296;2023-08-30T15:45:39;0;0;
73623;PMS5003;61921;53.226;-1.296;2023-08-30T15:48:05;3;1;
73623;PMS5003;61921;53.226;-1.296;2023-08-30T15:50:29;0;0;
73623;PMS5003;61921;53.226;-1.296;2023-08-30T15:52:55;0;0;
73623;PMS5003;61921;53.226;-1.296;2023-08-30T15:55:20;2;1;
73623;PMS5003;61921;53.226;-1.296;2023-08-30T15:57:45;2;1;
73623;PMS5003;61921;53.226;-1.296;2023-08-30T16:00:10;1;1;
73623;PMS5003;61921;53.226;-1.296;2023-08-30T16:02:35;0;0;
73623;PMS5003;61921;53.226;-1.296;2023-08-30T16:05:00;1;1;
73623;PMS5003;61921;53.226;-1.296;2023-08-30T16:07:25;2;1;
73623;PMS5003;61921;53.226;-1.296;2023-08-30T16:09:50;1;1;
73623;PMS5003;61921;53.226;-1.296;2023-08-30T16:12:15;1;1;
73623;PMS5003;61921;53.226;-1.296;2023-08-30T16:14:40;1;1;
73623;PMS5003;61921;53.226;-1.296;2023-08-30T16:17:06;2;2;
73623;PMS5003;61921;53.226;-1.296;2023-08-30T16:19:31;1;1;
73623;PMS5003;61921;53.226;-1.296;2023-08-30T16:21:56;0;0;
73623;PMS5003;61921;53.226;-1.296;2023-08-30T16:24:21;3;0;
73623;PMS5003;61921;53.226;-1.296;2023-08-30T16:26:46;1;1;